Avon, SD

6:43 AM CDT on October 23, 2014 (GMT -0500)
NonFedAWOS WAGNERMUNC SD US SUPERAWOS | Change Station
CLOSE
Current Station
Personal Weather Station
Location: Wagner, SD
Elevation: 1475 ft
Nearby Weather Stations
Active Advisory: Dense Fog Advisory

Elev 1475 ft 43.06 °N, 98.30 °W | Updated 48 minutes ago

Fog
Fog
41 °F
Feels Like 41 °F
N
0
Wind Variable Wind from North
Gusts 0.0 mph

Today
High -- | Low -- °F
--% Chance of Precip.
Yesterday
High -- | Low -- °F
Precip. -- in
7:55 AM 6:36 PM
Waning Crescent, 0% visible
Pressure 30.04 in
Visibility 0.2 miles
Clouds Overcast 100 ft
Windchill 41 °F
Dew Point 39 °F
Humidity 93%
Rainfall -999.00 in
Snow Depth Not available.
UV 0 out of 12
Pollen .80 out of 12
Air Quality Not available.
Flu Activity Sporadic
METAR KONL 231135Z AUTO 00000KT 1/4SM FG OVC001 04/04 A3004 RMK AO2 T00360036

More Conditions Fewer Conditions

Pressure 30.04 in
Visibility 0.2 miles
Clouds Overcast 100 ft
Windchill 41 °F
Dew Point 39 °F
Humidity 93%
Rainfall -999.00 in
Snow Depth Not available.
UV 0 out of 12
Pollen .80 out of 12
Air Quality Not available.
Flu Activity Sporadic
METAR KONL 231135Z AUTO 00000KT 1/4SM FG OVC001 04/04 A3004 RMK AO2 T00360036

More Conditions Fewer Conditions

10-Day Weather Forecast

Almanac

Astronomy

Oct. 23, 2014 Rise Set
Actual Time 7:55 AM CDT 6:36 PM CDT
Civil Twilight 7:26 AM CDT 7:05 PM CDT
Nautical Twilight 6:53 AM CDT 7:38 PM CDT
Astronomical Twilight 6:20 AM CDT 8:11 PM CDT
Moon 7:36 AM CDT 6:39 PM CDT
Length of Visible Light 11h 39m
Length of Day
10h 41m
Tomorrow will be 2m 43s shorter.
Waning Crescent, 0% of the Moon is Illuminated
Today
Waning Crescent
Oct 23
New
Oct 30
First Quarter
Nov 6
Full
Nov 14
Last Quarter

Today's Extremes

State Highs State Lows

Community

WunderPhotos

Upload Photos

1,764,209 photos uploaded!

Nearby

Snow Depth

Station Depth Elevation
North Rapid Creek 1 in 6130 ft
Blind Park 1 in 6890 ft

Earthquake Activity

City Distance Mag. Time & Date
No recent earthquake activity has been reported nearby.
Minimum magnitude displayed is 2.5.

Coastal Water Temperatures

Place Temperature
No Stations Reporting

Nearby Weather Stations